Time;durP1;ratioP1;P1;durP2;ratioP2;P2;SDS_P1;SDS_P2;PMS_P1;PMS_P2;Temp;Humidity;BMP_temperature;BMP_pressure;BME280_temperature;BME280_humidity;BME280_pressure;Samples;Min_cycle;Max_cycle;Signal;HPM_P1;HPM_P2
2023/08/08 05:49:04;;;;;;;7.43;5.28;;;;;;;;;;10627138;27;20433;-84
2023/08/08 05:54:05;;;;;;;9.70;6.75;;;;;;;;;;10666142;28;20118;-84
2023/08/08 05:59:08;;;;;;;9.73;6.82;;;;;;;;;;10628410;22;20048;-84
2023/08/08 06:04:29;;;;;;;12.55;9.90;;;;;;;;;;10540742;28;20036;-85
2023/08/08 06:09:32;;;;;;;6.75;5.70;;;;;;;;;;10574176;28;20047;-84
2023/08/08 06:14:33;;;;;;;9.10;6.07;;;;;;;;;;10590787;28;20051;-83
2023/08/08 06:19:34;;;;;;;15.05;8.35;;;;;;;;;;10604733;27;20051;-82
2023/08/08 06:24:39;;;;;;;9.93;6.95;;;;;;;;;;10607431;27;20028;-82
2023/08/08 06:29:45;;;;;;;12.32;10.10;;;;;;;;;;10514656;28;20054;-84
2023/08/08 06:34:49;;;;;;;13.50;9.77;;;;;;;;;;10565409;28;20401;-84
2023/08/08 06:39:50;;;;;;;15.32;10.63;;;;;;;;;;10567831;28;20027;-84
2023/08/08 06:44:51;;;;;;;7.38;5.70;;;;;;;;;;10569438;28;20085;-84
2023/08/08 06:49:54;;;;;;;12.43;8.25;;;;;;;;;;10568721;28;20546;-84
2023/08/08 06:54:55;;;;;;;16.77;12.55;;;;;;;;;;10569014;28;20024;-84
2023/08/08 06:59:56;;;;;;;6.07;5.47;;;;;;;;;;10546094;28;20123;-85
2023/08/08 07:04:57;;;;;;;6.47;4.32;;;;;;;;;;10549434;28;20080;-83
2023/08/08 07:09:58;;;;;;;5.80;4.68;;;;;;;;;;10570279;28;20023;-84
2023/08/08 07:14:59;;;;;;;7.20;5.15;;;;;;;;;;10557598;28;20069;-82
2023/08/08 07:20:00;;;;;;;7.65;6.15;;;;;;;;;;10579336;28;20028;-83
2023/08/08 07:25:01;;;;;;;10.38;7.25;;;;;;;;;;10558189;28;20063;-83
2023/08/08 07:30:02;;;;;;;9.68;6.13;;;;;;;;;;10544995;28;20024;-84
2023/08/08 07:35:05;;;;;;;9.10;6.85;;;;;;;;;;10539783;28;20077;-84
2023/08/08 07:40:14;;;;;;;8.90;6.95;;;;;;;;;;10540069;28;20026;-81
2023/08/08 07:45:15;;;;;;;10.25;7.32;;;;;;;;;;10539991;28;20028;-83
2023/08/08 07:50:16;;;;;;;11.60;7.28;;;;;;;;;;10541779;28;20122;-83
2023/08/08 07:55:17;;;;;;;8.30;6.75;;;;;;;;;;10539611;28;20034;-82
2023/08/08 08:00:20;;;;;;;9.73;6.82;;;;;;;;;;10535499;28;20480;-82
2023/08/08 08:05:21;;;;;;;9.38;5.88;;;;;;;;;;10534710;28;20074;-82
2023/08/08 08:10:22;;;;;;;7.30;5.65;;;;;;;;;;10536114;28;20053;-82
2023/08/08 08:15:23;;;;;;;9.18;6.00;;;;;;;;;;10539576;28;20120;-82
2023/08/08 08:20:25;;;;;;;8.52;5.47;;;;;;;;;;10557392;28;20484;-82
2023/08/08 08:25:26;;;;;;;7.03;5.00;;;;;;;;;;10538907;28;20490;-82
2023/08/08 08:30:27;;;;;;;7.85;4.78;;;;;;;;;;10541317;28;20044;-83
2023/08/08 08:35:28;;;;;;;9.52;5.22;;;;;;;;;;10540801;28;20115;-82
2023/08/08 08:40:30;;;;;;;9.57;5.05;;;;;;;;;;10555635;28;20019;-84
2023/08/08 08:45:31;;;;;;;5.75;4.10;;;;;;;;;;10535720;28;20024;-81
2023/08/08 08:50:33;;;;;;;7.25;3.90;;;;;;;;;;10537728;28;20096;-81
2023/08/08 08:55:34;;;;;;;7.72;3.72;;;;;;;;;;10554915;28;20024;-81
2023/08/08 09:00:35;;;;;;;6.78;3.50;;;;;;;;;;10537762;28;20100;-81
2023/08/08 09:05:37;;;;;;;5.28;2.80;;;;;;;;;;10538463;28;20088;-82
2023/08/08 09:10:38;;;;;;;5.22;2.85;;;;;;;;;;10537078;28;20122;-83
2023/08/08 09:15:39;;;;;;;5.78;3.05;;;;;;;;;;10536864;28;20143;-81
2023/08/08 09:20:40;;;;;;;5.50;2.90;;;;;;;;;;10536619;28;20107;-82
2023/08/08 09:25:41;;;;;;;4.55;2.85;;;;;;;;;;10534855;28;20202;-82
2023/08/08 09:30:42;;;;;;;7.00;2.58;;;;;;;;;;10552568;28;20054;-83
2023/08/08 09:35:45;;;;;;;7.45;2.65;;;;;;;;;;10538091;28;20028;-81
2023/08/08 09:40:46;;;;;;;5.78;2.75;;;;;;;;;;10557135;28;20389;-82
2023/08/08 09:45:48;;;;;;;4.50;2.35;;;;;;;;;;10559866;28;20027;-81
2023/08/08 09:50:50;;;;;;;3.88;2.45;;;;;;;;;;10540488;28;20596;-83
2023/08/08 09:55:52;;;;;;;5.30;2.83;;;;;;;;;;10546399;28;20095;-82
2023/08/08 10:00:53;;;;;;;5.38;2.75;;;;;;;;;;10558795;28;20036;-81
2023/08/08 10:05:54;;;;;;;5.90;2.50;;;;;;;;;;10539507;28;20418;-84
2023/08/08 10:10:58;;;;;;;5.55;2.53;;;;;;;;;;10538196;28;20122;-81
2023/08/08 10:16:04;;;;;;;6.07;2.72;;;;;;;;;;10535718;28;20027;-83
2023/08/08 10:21:05;;;;;;;3.90;2.33;;;;;;;;;;10531664;28;20047;-82
2023/08/08 10:26:18;;;;;;;4.50;2.80;;;;;;;;;;10530377;28;20053;-79
2023/08/08 10:31:20;;;;;;;6.88;2.92;;;;;;;;;;10533339;28;20028;-79
2023/08/08 10:36:23;;;;;;;5.43;3.50;;;;;;;;;;10543284;28;20042;-80
2023/08/08 10:41:26;;;;;;;5.55;3.10;;;;;;;;;;10539163;28;20111;-80
2023/08/08 10:46:31;;;;;;;6.20;3.45;;;;;;;;;;10539747;28;20122;-81
2023/08/08 10:51:42;;;;;;;8.48;3.20;;;;;;;;;;10544124;28;20028;-83
2023/08/08 10:56:43;;;;;;;;;;;;;;;;;;10549185;28;20039;-80
2023/08/08 11:01:46;;;;;;;5.78;3.22;;;;;;;;;;10569675;28;20330;-81
2023/08/08 11:06:47;;;;;;;6.30;2.88;;;;;;;;;;10552667;28;20045;-80
2023/08/08 11:11:49;;;;;;;8.35;2.95;;;;;;;;;;10548378;28;20023;-81
2023/08/08 11:16:51;;;;;;;5.28;2.60;;;;;;;;;;10544318;28;20510;-81
2023/08/08 11:21:52;;;;;;;5.63;2.85;;;;;;;;;;10547330;28;20035;-81
2023/08/08 11:26:58;;;;;;;4.40;2.38;;;;;;;;;;10573489;28;20084;-83
2023/08/08 11:32:04;;;;;;;4.13;2.30;;;;;;;;;;10563153;28;20152;-83
2023/08/08 11:37:05;;;;;;;5.93;3.90;;;;;;;;;;10577595;28;20081;-82
2023/08/08 11:42:07;;;;;;;5.68;2.80;;;;;;;;;;10541108;28;20169;-81
2023/08/08 11:47:08;;;;;;;5.80;2.85;;;;;;;;;;10539121;28;20024;-84
2023/08/08 11:52:09;;;;;;;6.00;2.45;;;;;;;;;;10540271;28;20031;-83
2023/08/08 11:57:11;;;;;;;3.33;2.28;;;;;;;;;;10581130;22;20131;-78
2023/08/08 12:02:12;;;;;;;7.20;2.38;;;;;;;;;;10571397;28;20028;-79
2023/08/08 12:07:13;;;;;;;5.70;3.50;;;;;;;;;;10571250;28;20114;-80
2023/08/08 12:12:14;;;;;;;3.95;2.05;;;;;;;;;;10575484;27;20441;-82
2023/08/08 12:17:15;;;;;;;4.53;2.28;;;;;;;;;;10577142;28;20022;-84
2023/08/08 12:22:16;;;;;;;2.67;1.65;;;;;;;;;;10577488;28;20050;-81
2023/08/08 12:27:17;;;;;;;5.32;2.72;;;;;;;;;;10574673;28;20062;-81
2023/08/08 12:32:23;;;;;;;5.30;2.50;;;;;;;;;;10578708;28;20099;-83
2023/08/08 12:37:24;;;;;;;5.43;2.00;;;;;;;;;;10577731;28;20100;-82
2023/08/08 12:42:26;;;;;;;4.60;2.10;;;;;;;;;;10574711;28;20110;-79
2023/08/08 12:47:28;;;;;;;4.35;1.80;;;;;;;;;;10589948;28;20020;-82
2023/08/08 12:52:29;;;;;;;4.38;2.10;;;;;;;;;;10569882;28;20035;-78
2023/08/08 12:57:31;;;;;;;3.20;2.17;;;;;;;;;;10585876;28;20051;-80
2023/08/08 13:02:33;;;;;;;4.00;2.17;;;;;;;;;;10587685;28;20012;-79
2023/08/08 13:07:34;;;;;;;6.30;2.33;;;;;;;;;;10617213;28;20027;-80
2023/08/08 13:12:35;;;;;;;3.67;2.00;;;;;;;;;;10593967;28;20103;-80
2023/08/08 13:17:36;;;;;;;4.13;2.00;;;;;;;;;;10587257;28;20020;-79
2023/08/08 13:22:38;;;;;;;2.67;1.88;;;;;;;;;;10585585;28;20103;-80
2023/08/08 13:27:39;;;;;;;4.20;2.10;;;;;;;;;;10588914;27;20024;-80
2023/08/08 13:32:40;;;;;;;2.95;1.98;;;;;;;;;;10569270;28;20023;-81
2023/08/08 13:37:42;;;;;;;2.72;1.92;;;;;;;;;;10571547;28;20027;-82
2023/08/08 13:42:47;;;;;;;3.05;1.85;;;;;;;;;;10569057;28;20135;-81
2023/08/08 13:47:51;;;;;;;4.10;2.13;;;;;;;;;;10575937;28;20028;-84
2023/08/08 13:52:54;;;;;;;4.95;2.60;;;;;;;;;;10572427;28;20020;-81
2023/08/08 13:57:57;;;;;;;3.35;1.98;;;;;;;;;;10571558;28;20031;-81
2023/08/08 14:02:58;;;;;;;3.30;2.03;;;;;;;;;;10568834;28;20030;-80
2023/08/08 14:07:59;;;;;;;3.17;2.20;;;;;;;;;;10574239;28;20062;-81
2023/08/08 14:13:01;;;;;;;4.82;2.25;;;;;;;;;;10578318;28;20475;-81
2023/08/08 14:18:02;;;;;;;7.00;3.05;;;;;;;;;;10596661;28;20050;-82
2023/08/08 14:23:05;;;;;;;4.15;2.05;;;;;;;;;;10578066;28;20118;-81
2023/08/08 14:28:06;;;;;;;3.05;2.22;;;;;;;;;;10581487;28;20035;-81
2023/08/08 14:33:07;;;;;;;4.60;1.98;;;;;;;;;;10603082;28;20102;-81
2023/08/08 14:38:09;;;;;;;4.55;2.75;;;;;;;;;;10598218;28;20039;-81
2023/08/08 14:43:13;;;;;;;4.20;2.00;;;;;;;;;;10575114;28;20023;-84
2023/08/08 14:48:17;;;;;;;4.28;2.30;;;;;;;;;;10602316;27;20038;-81
2023/08/08 14:53:18;;;;;;;2.47;1.73;;;;;;;;;;10598869;28;20081;-82
2023/08/08 14:58:34;;;;;;;3.35;1.88;;;;;;;;;;10581495;28;20066;-84
2023/08/08 15:03:50;;;;;;;4.68;2.35;;;;;;;;;;10596729;28;20075;-81
2023/08/08 15:08:51;;;;;;;3.33;1.90;;;;;;;;;;10577264;28;20118;-81
2023/08/08 15:13:52;;;;;;;2.20;1.58;;;;;;;;;;10577671;28;20123;-81
2023/08/08 15:18:53;;;;;;;3.00;1.30;;;;;;;;;;10575991;28;20036;-84
2023/08/08 15:23:54;;;;;;;3.10;1.65;;;;;;;;;;10586232;27;20055;-82
2023/08/08 15:28:55;;;;;;;2.45;1.30;;;;;;;;;;10579872;28;20020;-81
2023/08/08 15:33:56;;;;;;;3.95;1.40;;;;;;;;;;10596449;28;20461;-79
2023/08/08 15:38:57;;;;;;;1.83;1.40;;;;;;;;;;10595275;28;20028;-80
2023/08/08 15:43:58;;;;;;;2.75;1.77;;;;;;;;;;10574630;28;20054;-81
2023/08/08 15:48:59;;;;;;;3.55;1.52;;;;;;;;;;10577544;28;20051;-80
2023/08/08 15:54:00;;;;;;;1.92;1.30;;;;;;;;;;10577869;28;20023;-81
2023/08/08 15:59:01;;;;;;;2.03;0.80;;;;;;;;;;10590261;28;20095;-81
2023/08/08 16:04:29;;;;;;;1.58;0.80;;;;;;;;;;10598478;28;20036;-80
2023/08/08 16:09:30;;;;;;;1.30;0.80;;;;;;;;;;10592594;28;20032;-81
2023/08/08 16:14:31;;;;;;;1.65;0.80;;;;;;;;;;10590182;28;20024;-82
2023/08/08 16:19:32;;;;;;;1.42;0.68;;;;;;;;;;10572292;28;20053;-80
2023/08/08 16:24:34;;;;;;;1.67;0.80;;;;;;;;;;10591156;28;20027;-82
2023/08/08 16:52:25;;;;;;;2.30;0.87;;;;;;;;;;10595968;27;19995;-85
2023/08/08 16:57:51;;;;;;;2.15;1.05;;;;;;;;;;10615331;27;20039;-84
2023/08/08 17:03:23;;;;;;;1.83;0.80;;;;;;;;;;10597011;28;20397;-84
2023/08/08 17:14:31;;;;;;;2.28;1.33;;;;;;;;;;10603339;28;20028;-84
2023/08/08 17:26:06;;;;;;;1.95;1.10;;;;;;;;;;10474110;28;20466;-85
2023/08/08 18:06:04;;;;;;;3.10;1.50;;;;;;;;;;10583032;28;20051;-89
2023/08/08 18:17:34;;;;;;;3.05;1.10;;;;;;;;;;10372352;28;20399;-89
2023/08/08 18:23:11;;;;;;;3.17;1.02;;;;;;;;;;10371761;28;20026;-89
2023/08/08 18:28:12;;;;;;;2.03;1.17;;;;;;;;;;10396179;28;20469;-88
2023/08/08 18:33:13;;;;;;;3.17;1.30;;;;;;;;;;10578523;28;20107;-89
2023/08/08 18:38:14;;;;;;;3.50;1.60;;;;;;;;;;10567486;28;20020;-89
2023/08/08 18:43:15;;;;;;;2.35;1.38;;;;;;;;;;10565145;28;20024;-88
2023/08/08 18:48:16;;;;;;;5.07;1.52;;;;;;;;;;10584086;28;20028;-89
2023/08/08 18:53:17;;;;;;;4.97;1.50;;;;;;;;;;10566187;28;20038;-88
2023/08/08 18:58:18;;;;;;;3.40;1.25;;;;;;;;;;10577873;28;20130;-89
2023/08/08 19:03:19;;;;;;;2.53;1.20;;;;;;;;;;10620944;27;20020;-88
2023/08/08 19:08:20;;;;;;;4.38;2.05;;;;;;;;;;10599914;28;20031;-87
2023/08/08 19:13:21;;;;;;;3.65;2.45;;;;;;;;;;10571187;28;20032;-87
